sensor_id;sensor_type;location;lat;lon;timestamp;P1;durP1;ratioP1;P2;durP2;ratioP2
17228;SDS011;8731;50.364;8.958;2022-09-09T00:03:35;5.10;;;1.40;;
17228;SDS011;8731;50.364;8.958;2022-09-09T00:08:11;3.23;;;1.30;;
17228;SDS011;8731;50.364;8.958;2022-09-09T00:12:43;2.73;;;1.10;;
17228;SDS011;8731;50.364;8.958;2022-09-09T00:17:19;3.17;;;1.10;;
17228;SDS011;8731;50.364;8.958;2022-09-09T00:21:59;5.93;;;1.47;;
17228;SDS011;8731;50.364;8.958;2022-09-09T00:26:38;4.27;;;1.40;;
17228;SDS011;8731;50.364;8.958;2022-09-09T00:31:09;3.47;;;1.10;;
17228;SDS011;8731;50.364;8.958;2022-09-09T00:35:37;4.17;;;1.30;;
17228;SDS011;8731;50.364;8.958;2022-09-09T00:40:07;4.37;;;1.10;;
17228;SDS011;8731;50.364;8.958;2022-09-09T00:44:53;3.13;;;0.90;;
17228;SDS011;8731;50.364;8.958;2022-09-09T00:49:28;2.07;;;0.80;;
17228;SDS011;8731;50.364;8.958;2022-09-09T00:58:55;3.47;;;1.10;;
17228;SDS011;8731;50.364;8.958;2022-09-09T01:03:35;2.37;;;0.90;;
17228;SDS011;8731;50.364;8.958;2022-09-09T01:08:07;3.10;;;1.10;;
17228;SDS011;8731;50.364;8.958;2022-09-09T01:12:58;2.07;;;0.90;;
17228;SDS011;8731;50.364;8.958;2022-09-09T01:17:31;2.67;;;1.07;;
17228;SDS011;8731;50.364;8.958;2022-09-09T01:22:06;3.27;;;1.27;;
17228;SDS011;8731;50.364;8.958;2022-09-09T01:26:46;4.87;;;1.13;;
17228;SDS011;8731;50.364;8.958;2022-09-09T01:31:19;3.17;;;1.30;;
17228;SDS011;8731;50.364;8.958;2022-09-09T01:35:48;1.83;;;1.10;;
17228;SDS011;8731;50.364;8.958;2022-09-09T01:40:26;2.43;;;1.33;;
17228;SDS011;8731;50.364;8.958;2022-09-09T01:45:31;5.40;;;1.27;;
17228;SDS011;8731;50.364;8.958;2022-09-09T01:50:08;3.40;;;1.40;;
17228;SDS011;8731;50.364;8.958;2022-09-09T01:54:36;2.90;;;1.20;;
17228;SDS011;8731;50.364;8.958;2022-09-09T01:59:08;3.27;;;1.23;;
17228;SDS011;8731;50.364;8.958;2022-09-09T02:04:21;3.30;;;1.03;;
17228;SDS011;8731;50.364;8.958;2022-09-09T02:09:06;3.40;;;1.13;;
17228;SDS011;8731;50.364;8.958;2022-09-09T02:18:07;2.20;;;1.07;;
17228;SDS011;8731;50.364;8.958;2022-09-09T02:22:35;7.03;;;2.13;;
17228;SDS011;8731;50.364;8.958;2022-09-09T02:27:06;2.90;;;1.20;;
17228;SDS011;8731;50.364;8.958;2022-09-09T02:31:32;2.13;;;0.90;;
17228;SDS011;8731;50.364;8.958;2022-09-09T02:36:02;5.40;;;1.40;;
17228;SDS011;8731;50.364;8.958;2022-09-09T02:40:30;2.53;;;1.33;;
17228;SDS011;8731;50.364;8.958;2022-09-09T02:44:56;2.87;;;1.30;;
17228;SDS011;8731;50.364;8.958;2022-09-09T02:49:20;3.23;;;1.53;;
17228;SDS011;8731;50.364;8.958;2022-09-09T02:53:56;2.30;;;1.13;;
17228;SDS011;8731;50.364;8.958;2022-09-09T02:58:32;3.30;;;1.10;;
17228;SDS011;8731;50.364;8.958;2022-09-09T03:02:59;3.83;;;1.57;;
17228;SDS011;8731;50.364;8.958;2022-09-09T03:07:22;2.83;;;1.30;;
17228;SDS011;8731;50.364;8.958;2022-09-09T03:11:46;3.23;;;1.40;;
17228;SDS011;8731;50.364;8.958;2022-09-09T03:16:11;3.97;;;1.50;;
17228;SDS011;8731;50.364;8.958;2022-09-09T03:20:38;3.93;;;1.40;;
17228;SDS011;8731;50.364;8.958;2022-09-09T03:25:02;3.73;;;1.63;;
17228;SDS011;8731;50.364;8.958;2022-09-09T03:29:26;5.37;;;1.53;;
17228;SDS011;8731;50.364;8.958;2022-09-09T03:33:53;3.33;;;1.50;;
17228;SDS011;8731;50.364;8.958;2022-09-09T03:38:15;3.27;;;1.20;;
17228;SDS011;8731;50.364;8.958;2022-09-09T03:42:38;5.00;;;1.40;;
17228;SDS011;8731;50.364;8.958;2022-09-09T03:47:01;5.07;;;1.80;;
17228;SDS011;8731;50.364;8.958;2022-09-09T03:51:25;3.80;;;1.27;;
17228;SDS011;8731;50.364;8.958;2022-09-09T03:55:48;3.27;;;1.67;;
17228;SDS011;8731;50.364;8.958;2022-09-09T04:00:15;4.77;;;1.70;;
17228;SDS011;8731;50.364;8.958;2022-09-09T04:04:42;5.10;;;1.50;;
17228;SDS011;8731;50.364;8.958;2022-09-09T04:09:06;4.03;;;1.57;;
17228;SDS011;8731;50.364;8.958;2022-09-09T04:13:29;5.43;;;1.93;;
17228;SDS011;8731;50.364;8.958;2022-09-09T04:17:51;5.50;;;1.73;;
17228;SDS011;8731;50.364;8.958;2022-09-09T04:22:14;3.67;;;1.70;;
17228;SDS011;8731;50.364;8.958;2022-09-09T04:26:37;3.67;;;1.67;;
17228;SDS011;8731;50.364;8.958;2022-09-09T04:31:04;2.97;;;1.50;;
17228;SDS011;8731;50.364;8.958;2022-09-09T04:35:30;4.67;;;1.80;;
17228;SDS011;8731;50.364;8.958;2022-09-09T04:39:52;5.40;;;1.63;;
17228;SDS011;8731;50.364;8.958;2022-09-09T04:44:16;7.00;;;1.90;;
17228;SDS011;8731;50.364;8.958;2022-09-09T04:48:38;9.17;;;2.00;;
17228;SDS011;8731;50.364;8.958;2022-09-09T04:53:02;5.53;;;1.60;;
17228;SDS011;8731;50.364;8.958;2022-09-09T04:57:27;5.30;;;1.80;;
17228;SDS011;8731;50.364;8.958;2022-09-09T05:01:53;4.50;;;1.30;;
17228;SDS011;8731;50.364;8.958;2022-09-09T05:06:16;7.90;;;1.97;;
17228;SDS011;8731;50.364;8.958;2022-09-09T05:10:43;4.40;;;1.67;;
17228;SDS011;8731;50.364;8.958;2022-09-09T05:15:06;3.73;;;1.57;;
17228;SDS011;8731;50.364;8.958;2022-09-09T05:19:33;4.20;;;1.50;;
17228;SDS011;8731;50.364;8.958;2022-09-09T05:23:55;3.97;;;1.40;;
17228;SDS011;8731;50.364;8.958;2022-09-09T05:28:18;3.23;;;1.37;;
17228;SDS011;8731;50.364;8.958;2022-09-09T05:32:41;4.43;;;1.60;;
17228;SDS011;8731;50.364;8.958;2022-09-09T05:37:06;6.37;;;1.53;;
17228;SDS011;8731;50.364;8.958;2022-09-09T05:41:30;2.87;;;1.40;;
17228;SDS011;8731;50.364;8.958;2022-09-09T05:45:59;4.73;;;2.00;;
17228;SDS011;8731;50.364;8.958;2022-09-09T05:50:24;2.73;;;1.70;;
17228;SDS011;8731;50.364;8.958;2022-09-09T05:54:48;3.43;;;1.67;;
17228;SDS011;8731;50.364;8.958;2022-09-09T05:59:10;5.00;;;2.00;;
17228;SDS011;8731;50.364;8.958;2022-09-09T06:03:33;4.77;;;1.97;;
17228;SDS011;8731;50.364;8.958;2022-09-09T06:07:57;3.90;;;1.57;;
17228;SDS011;8731;50.364;8.958;2022-09-09T06:12:20;6.80;;;1.70;;
17228;SDS011;8731;50.364;8.958;2022-09-09T06:16:42;5.33;;;1.40;;
17228;SDS011;8731;50.364;8.958;2022-09-09T06:21:17;4.30;;;1.70;;
17228;SDS011;8731;50.364;8.958;2022-09-09T06:25:42;6.17;;;1.73;;
17228;SDS011;8731;50.364;8.958;2022-09-09T06:30:06;5.67;;;2.37;;
17228;SDS011;8731;50.364;8.958;2022-09-09T06:34:31;11.57;;;2.50;;
17228;SDS011;8731;50.364;8.958;2022-09-09T06:38:54;6.37;;;1.90;;
17228;SDS011;8731;50.364;8.958;2022-09-09T06:43:17;3.60;;;1.40;;
17228;SDS011;8731;50.364;8.958;2022-09-09T06:47:44;7.13;;;1.60;;
17228;SDS011;8731;50.364;8.958;2022-09-09T06:52:08;6.10;;;1.60;;
17228;SDS011;8731;50.364;8.958;2022-09-09T06:56:31;4.73;;;2.33;;
17228;SDS011;8731;50.364;8.958;2022-09-09T07:01:03;10.03;;;1.70;;
17228;SDS011;8731;50.364;8.958;2022-09-09T07:05:29;4.80;;;1.60;;
17228;SDS011;8731;50.364;8.958;2022-09-09T07:09:51;4.50;;;1.60;;
17228;SDS011;8731;50.364;8.958;2022-09-09T07:14:14;4.63;;;1.80;;
17228;SDS011;8731;50.364;8.958;2022-09-09T07:18:41;5.57;;;1.47;;
17228;SDS011;8731;50.364;8.958;2022-09-09T07:23:05;5.67;;;1.63;;
17228;SDS011;8731;50.364;8.958;2022-09-09T07:27:28;2.57;;;1.40;;
17228;SDS011;8731;50.364;8.958;2022-09-09T07:31:50;3.87;;;1.53;;
17228;SDS011;8731;50.364;8.958;2022-09-09T07:36:18;6.00;;;1.33;;
17228;SDS011;8731;50.364;8.958;2022-09-09T07:40:45;2.67;;;1.43;;
17228;SDS011;8731;50.364;8.958;2022-09-09T07:45:07;4.23;;;1.40;;
17228;SDS011;8731;50.364;8.958;2022-09-09T07:49:30;4.63;;;1.30;;
17228;SDS011;8731;50.364;8.958;2022-09-09T07:53:54;5.93;;;1.50;;
17228;SDS011;8731;50.364;8.958;2022-09-09T07:58:20;4.53;;;1.40;;
17228;SDS011;8731;50.364;8.958;2022-09-09T08:02:42;5.10;;;1.60;;
17228;SDS011;8731;50.364;8.958;2022-09-09T08:07:06;5.57;;;1.73;;
17228;SDS011;8731;50.364;8.958;2022-09-09T08:11:36;5.10;;;1.97;;
17228;SDS011;8731;50.364;8.958;2022-09-09T08:16:06;5.07;;;1.67;;
17228;SDS011;8731;50.364;8.958;2022-09-09T08:20:32;3.07;;;1.37;;
17228;SDS011;8731;50.364;8.958;2022-09-09T08:24:56;5.10;;;1.60;;
17228;SDS011;8731;50.364;8.958;2022-09-09T08:29:19;6.20;;;1.50;;
17228;SDS011;8731;50.364;8.958;2022-09-09T08:33:43;4.07;;;1.50;;
17228;SDS011;8731;50.364;8.958;2022-09-09T08:38:06;6.43;;;1.70;;
17228;SDS011;8731;50.364;8.958;2022-09-09T08:42:31;5.60;;;1.50;;
17228;SDS011;8731;50.364;8.958;2022-09-09T08:47:03;7.43;;;1.80;;
17228;SDS011;8731;50.364;8.958;2022-09-09T08:51:39;5.33;;;1.50;;
17228;SDS011;8731;50.364;8.958;2022-09-09T08:56:04;5.93;;;1.50;;
17228;SDS011;8731;50.364;8.958;2022-09-09T09:00:40;7.33;;;1.53;;
17228;SDS011;8731;50.364;8.958;2022-09-09T09:05:23;7.43;;;1.60;;
17228;SDS011;8731;50.364;8.958;2022-09-09T09:09:56;5.43;;;1.70;;
17228;SDS011;8731;50.364;8.958;2022-09-09T09:14:33;5.47;;;2.00;;
17228;SDS011;8731;50.364;8.958;2022-09-09T09:18:59;3.10;;;1.80;;
17228;SDS011;8731;50.364;8.958;2022-09-09T09:23:26;4.77;;;1.57;;
17228;SDS011;8731;50.364;8.958;2022-09-09T09:28:03;5.50;;;1.63;;
17228;SDS011;8731;50.364;8.958;2022-09-09T09:32:38;7.17;;;1.70;;
17228;SDS011;8731;50.364;8.958;2022-09-09T09:37:07;3.83;;;1.50;;
17228;SDS011;8731;50.364;8.958;2022-09-09T09:41:40;6.47;;;1.80;;
17228;SDS011;8731;50.364;8.958;2022-09-09T09:46:17;6.97;;;2.17;;
17228;SDS011;8731;50.364;8.958;2022-09-09T09:50:47;5.20;;;1.60;;
17228;SDS011;8731;50.364;8.958;2022-09-09T09:55:14;8.43;;;1.83;;
17228;SDS011;8731;50.364;8.958;2022-09-09T09:59:40;5.73;;;2.00;;
17228;SDS011;8731;50.364;8.958;2022-09-09T10:04:15;9.87;;;2.20;;
17228;SDS011;8731;50.364;8.958;2022-09-09T10:08:45;8.07;;;2.33;;
17228;SDS011;8731;50.364;8.958;2022-09-09T10:13:09;7.03;;;1.43;;
17228;SDS011;8731;50.364;8.958;2022-09-09T10:17:43;8.80;;;1.87;;
17228;SDS011;8731;50.364;8.958;2022-09-09T10:22:23;1.87;;;0.97;;
17228;SDS011;8731;50.364;8.958;2022-09-09T10:26:49;2.57;;;0.97;;
17228;SDS011;8731;50.364;8.958;2022-09-09T10:31:21;2.27;;;1.07;;
17228;SDS011;8731;50.364;8.958;2022-09-09T10:35:57;2.03;;;0.83;;
17228;SDS011;8731;50.364;8.958;2022-09-09T10:40:34;3.23;;;0.90;;
17228;SDS011;8731;50.364;8.958;2022-09-09T10:45:07;2.47;;;0.90;;
17228;SDS011;8731;50.364;8.958;2022-09-09T10:49:45;4.13;;;1.50;;
17228;SDS011;8731;50.364;8.958;2022-09-09T10:54:36;3.30;;;1.20;;
17228;SDS011;8731;50.364;8.958;2022-09-09T10:59:17;6.00;;;1.30;;
17228;SDS011;8731;50.364;8.958;2022-09-09T11:03:47;4.57;;;1.30;;
17228;SDS011;8731;50.364;8.958;2022-09-09T11:08:18;3.80;;;1.20;;
17228;SDS011;8731;50.364;8.958;2022-09-09T11:12:43;6.93;;;1.90;;
17228;SDS011;8731;50.364;8.958;2022-09-09T11:17:14;4.90;;;2.13;;
17228;SDS011;8731;50.364;8.958;2022-09-09T11:21:42;4.27;;;1.93;;
17228;SDS011;8731;50.364;8.958;2022-09-09T11:26:10;4.93;;;1.40;;
17228;SDS011;8731;50.364;8.958;2022-09-09T11:30:43;5.10;;;1.20;;
17228;SDS011;8731;50.364;8.958;2022-09-09T11:35:23;4.87;;;1.37;;
17228;SDS011;8731;50.364;8.958;2022-09-09T11:40:14;2.93;;;1.10;;
17228;SDS011;8731;50.364;8.958;2022-09-09T11:44:41;4.53;;;1.27;;
17228;SDS011;8731;50.364;8.958;2022-09-09T11:49:04;2.43;;;1.00;;
17228;SDS011;8731;50.364;8.958;2022-09-09T11:53:48;3.90;;;1.27;;
17228;SDS011;8731;50.364;8.958;2022-09-09T11:58:15;4.10;;;1.07;;
17228;SDS011;8731;50.364;8.958;2022-09-09T12:02:47;4.80;;;1.13;;
17228;SDS011;8731;50.364;8.958;2022-09-09T12:07:22;3.73;;;1.03;;
17228;SDS011;8731;50.364;8.958;2022-09-09T12:12:06;3.93;;;1.13;;
17228;SDS011;8731;50.364;8.958;2022-09-09T12:16:49;2.47;;;1.00;;
17228;SDS011;8731;50.364;8.958;2022-09-09T12:21:14;4.20;;;1.20;;
17228;SDS011;8731;50.364;8.958;2022-09-09T12:25:56;3.60;;;1.10;;
17228;SDS011;8731;50.364;8.958;2022-09-09T12:30:41;3.13;;;1.20;;
17228;SDS011;8731;50.364;8.958;2022-09-09T12:35:17;3.43;;;1.43;;
17228;SDS011;8731;50.364;8.958;2022-09-09T12:39:47;3.13;;;1.10;;
17228;SDS011;8731;50.364;8.958;2022-09-09T12:44:15;3.23;;;1.30;;
17228;SDS011;8731;50.364;8.958;2022-09-09T12:48:39;4.37;;;1.40;;
17228;SDS011;8731;50.364;8.958;2022-09-09T12:53:03;6.03;;;1.30;;
17228;SDS011;8731;50.364;8.958;2022-09-09T12:57:32;3.00;;;1.20;;
17228;SDS011;8731;50.364;8.958;2022-09-09T13:01:58;4.63;;;1.30;;
17228;SDS011;8731;50.364;8.958;2022-09-09T13:06:23;3.63;;;1.03;;
17228;SDS011;8731;50.364;8.958;2022-09-09T13:10:48;4.97;;;1.23;;
17228;SDS011;8731;50.364;8.958;2022-09-09T13:15:22;3.67;;;1.40;;
17228;SDS011;8731;50.364;8.958;2022-09-09T13:19:47;5.33;;;1.10;;
17228;SDS011;8731;50.364;8.958;2022-09-09T13:24:24;3.40;;;1.10;;
17228;SDS011;8731;50.364;8.958;2022-09-09T13:28:51;6.43;;;1.47;;
17228;SDS011;8731;50.364;8.958;2022-09-09T13:33:20;4.57;;;1.13;;
17228;SDS011;8731;50.364;8.958;2022-09-09T13:37:44;4.30;;;1.40;;
17228;SDS011;8731;50.364;8.958;2022-09-09T13:42:19;4.43;;;1.30;;
17228;SDS011;8731;50.364;8.958;2022-09-09T13:46:46;3.47;;;0.83;;
17228;SDS011;8731;50.364;8.958;2022-09-09T13:51:22;2.97;;;0.97;;
17228;SDS011;8731;50.364;8.958;2022-09-09T13:55:57;3.27;;;1.07;;
17228;SDS011;8731;50.364;8.958;2022-09-09T14:00:22;3.27;;;0.70;;
17228;SDS011;8731;50.364;8.958;2022-09-09T14:04:46;2.17;;;0.70;;
17228;SDS011;8731;50.364;8.958;2022-09-09T14:09:11;4.67;;;0.83;;
17228;SDS011;8731;50.364;8.958;2022-09-09T14:13:36;2.20;;;0.93;;
17228;SDS011;8731;50.364;8.958;2022-09-09T14:18:00;2.93;;;1.03;;
17228;SDS011;8731;50.364;8.958;2022-09-09T14:22:22;4.57;;;1.03;;
17228;SDS011;8731;50.364;8.958;2022-09-09T14:26:45;1.43;;;0.70;;
17228;SDS011;8731;50.364;8.958;2022-09-09T14:31:08;2.00;;;0.80;;
17228;SDS011;8731;50.364;8.958;2022-09-09T14:35:31;3.50;;;0.80;;
17228;SDS011;8731;50.364;8.958;2022-09-09T14:39:57;3.53;;;0.80;;
17228;SDS011;8731;50.364;8.958;2022-09-09T14:44:19;1.67;;;0.67;;
17228;SDS011;8731;50.364;8.958;2022-09-09T14:48:42;1.67;;;0.70;;
17228;SDS011;8731;50.364;8.958;2022-09-09T14:53:06;1.73;;;0.40;;
17228;SDS011;8731;50.364;8.958;2022-09-09T14:57:30;1.60;;;0.70;;
17228;SDS011;8731;50.364;8.958;2022-09-09T15:01:53;5.00;;;3.30;;
17228;SDS011;8731;50.364;8.958;2022-09-09T15:06:15;6.63;;;5.20;;
17228;SDS011;8731;50.364;8.958;2022-09-09T15:10:39;3.43;;;1.27;;
17228;SDS011;8731;50.364;8.958;2022-09-09T15:15:02;1.90;;;0.80;;
17228;SDS011;8731;50.364;8.958;2022-09-09T15:19:25;3.40;;;0.63;;
17228;SDS011;8731;50.364;8.958;2022-09-09T15:23:47;3.93;;;0.70;;
17228;SDS011;8731;50.364;8.958;2022-09-09T15:28:12;2.57;;;0.80;;
17228;SDS011;8731;50.364;8.958;2022-09-09T15:32:34;2.20;;;0.80;;
17228;SDS011;8731;50.364;8.958;2022-09-09T15:36:56;3.60;;;0.70;;
17228;SDS011;8731;50.364;8.958;2022-09-09T15:41:20;1.63;;;0.70;;
17228;SDS011;8731;50.364;8.958;2022-09-09T15:45:46;1.40;;;0.63;;
17228;SDS011;8731;50.364;8.958;2022-09-09T15:50:15;3.77;;;1.00;;
17228;SDS011;8731;50.364;8.958;2022-09-09T15:54:37;4.30;;;0.70;;
17228;SDS011;8731;50.364;8.958;2022-09-09T15:59:00;1.67;;;0.60;;
17228;SDS011;8731;50.364;8.958;2022-09-09T16:03:25;2.70;;;0.70;;
17228;SDS011;8731;50.364;8.958;2022-09-09T16:07:47;1.63;;;0.70;;
17228;SDS011;8731;50.364;8.958;2022-09-09T16:12:09;1.93;;;0.70;;
17228;SDS011;8731;50.364;8.958;2022-09-09T16:16:33;1.70;;;0.63;;
17228;SDS011;8731;50.364;8.958;2022-09-09T16:20:57;3.00;;;0.70;;
17228;SDS011;8731;50.364;8.958;2022-09-09T16:25:20;3.03;;;0.70;;
17228;SDS011;8731;50.364;8.958;2022-09-09T16:29:42;1.63;;;0.50;;
17228;SDS011;8731;50.364;8.958;2022-09-09T16:34:05;2.67;;;0.60;;
17228;SDS011;8731;50.364;8.958;2022-09-09T16:38:29;3.23;;;0.73;;
17228;SDS011;8731;50.364;8.958;2022-09-09T16:42:51;2.57;;;0.47;;
17228;SDS011;8731;50.364;8.958;2022-09-09T16:47:14;2.37;;;0.63;;
17228;SDS011;8731;50.364;8.958;2022-09-09T16:51:38;1.73;;;0.60;;
17228;SDS011;8731;50.364;8.958;2022-09-09T16:56:06;1.30;;;0.60;;
17228;SDS011;8731;50.364;8.958;2022-09-09T17:00:29;1.60;;;0.70;;
17228;SDS011;8731;50.364;8.958;2022-09-09T17:04:51;3.07;;;1.00;;
17228;SDS011;8731;50.364;8.958;2022-09-09T17:09:13;2.83;;;1.07;;
17228;SDS011;8731;50.364;8.958;2022-09-09T17:13:37;3.07;;;1.50;;
17228;SDS011;8731;50.364;8.958;2022-09-09T17:18:00;2.67;;;1.10;;
17228;SDS011;8731;50.364;8.958;2022-09-09T17:22:22;3.60;;;1.27;;
17228;SDS011;8731;50.364;8.958;2022-09-09T17:26:46;3.53;;;1.20;;
17228;SDS011;8731;50.364;8.958;2022-09-09T17:31:10;2.93;;;1.10;;
17228;SDS011;8731;50.364;8.958;2022-09-09T17:35:35;3.03;;;1.10;;
17228;SDS011;8731;50.364;8.958;2022-09-09T17:39:57;3.63;;;0.93;;
17228;SDS011;8731;50.364;8.958;2022-09-09T17:44:20;2.60;;;1.00;;
17228;SDS011;8731;50.364;8.958;2022-09-09T17:48:43;4.13;;;1.37;;
17228;SDS011;8731;50.364;8.958;2022-09-09T17:53:06;3.73;;;1.50;;
17228;SDS011;8731;50.364;8.958;2022-09-09T17:57:28;4.77;;;1.77;;
17228;SDS011;8731;50.364;8.958;2022-09-09T18:01:51;2.20;;;1.03;;
17228;SDS011;8731;50.364;8.958;2022-09-09T18:06:17;3.70;;;1.03;;
17228;SDS011;8731;50.364;8.958;2022-09-09T18:10:50;8.60;;;1.43;;
17228;SDS011;8731;50.364;8.958;2022-09-09T18:15:14;4.10;;;0.90;;
17228;SDS011;8731;50.364;8.958;2022-09-09T18:19:37;4.83;;;0.97;;
17228;SDS011;8731;50.364;8.958;2022-09-09T18:24:01;3.27;;;0.87;;
17228;SDS011;8731;50.364;8.958;2022-09-09T18:28:26;3.43;;;1.10;;
17228;SDS011;8731;50.364;8.958;2022-09-09T18:32:48;2.67;;;1.00;;
17228;SDS011;8731;50.364;8.958;2022-09-09T18:37:12;3.83;;;1.07;;
17228;SDS011;8731;50.364;8.958;2022-09-09T18:41:36;5.70;;;1.30;;
17228;SDS011;8731;50.364;8.958;2022-09-09T18:46:02;2.57;;;1.07;;
17228;SDS011;8731;50.364;8.958;2022-09-09T18:50:25;6.77;;;1.10;;
17228;SDS011;8731;50.364;8.958;2022-09-09T18:54:47;4.43;;;1.30;;
17228;SDS011;8731;50.364;8.958;2022-09-09T18:59:11;3.57;;;1.33;;
17228;SDS011;8731;50.364;8.958;2022-09-09T19:03:38;3.47;;;1.20;;
17228;SDS011;8731;50.364;8.958;2022-09-09T19:08:01;3.57;;;0.80;;
17228;SDS011;8731;50.364;8.958;2022-09-09T19:12:23;2.97;;;1.10;;
17228;SDS011;8731;50.364;8.958;2022-09-09T19:16:47;3.67;;;1.17;;
17228;SDS011;8731;50.364;8.958;2022-09-09T19:21:11;2.93;;;1.10;;
17228;SDS011;8731;50.364;8.958;2022-09-09T19:25:37;2.57;;;0.97;;
17228;SDS011;8731;50.364;8.958;2022-09-09T19:29:59;2.77;;;0.90;;
17228;SDS011;8731;50.364;8.958;2022-09-09T19:34:23;3.53;;;1.00;;
17228;SDS011;8731;50.364;8.958;2022-09-09T19:38:45;2.40;;;0.90;;
17228;SDS011;8731;50.364;8.958;2022-09-09T19:43:07;3.33;;;0.83;;
17228;SDS011;8731;50.364;8.958;2022-09-09T19:47:30;2.90;;;0.73;;
17228;SDS011;8731;50.364;8.958;2022-09-09T19:51:53;2.97;;;1.13;;
17228;SDS011;8731;50.364;8.958;2022-09-09T19:56:16;1.87;;;0.70;;
17228;SDS011;8731;50.364;8.958;2022-09-09T20:00:40;3.43;;;1.23;;
17228;SDS011;8731;50.364;8.958;2022-09-09T20:05:04;3.33;;;0.90;;
17228;SDS011;8731;50.364;8.958;2022-09-09T20:09:29;3.33;;;0.93;;
17228;SDS011;8731;50.364;8.958;2022-09-09T20:13:51;3.30;;;0.90;;
17228;SDS011;8731;50.364;8.958;2022-09-09T20:18:14;2.77;;;0.80;;
17228;SDS011;8731;50.364;8.958;2022-09-09T20:22:36;2.00;;;0.77;;
17228;SDS011;8731;50.364;8.958;2022-09-09T20:27:00;1.73;;;0.67;;
17228;SDS011;8731;50.364;8.958;2022-09-09T20:31:23;1.20;;;0.60;;
17228;SDS011;8731;50.364;8.958;2022-09-09T20:35:47;3.43;;;0.90;;
17228;SDS011;8731;50.364;8.958;2022-09-09T20:40:10;2.43;;;0.70;;
17228;SDS011;8731;50.364;8.958;2022-09-09T20:44:33;1.40;;;0.67;;
17228;SDS011;8731;50.364;8.958;2022-09-09T20:48:56;0.80;;;0.60;;
17228;SDS011;8731;50.364;8.958;2022-09-09T20:53:19;1.70;;;0.70;;
17228;SDS011;8731;50.364;8.958;2022-09-09T20:57:42;2.07;;;0.80;;
17228;SDS011;8731;50.364;8.958;2022-09-09T21:02:05;3.57;;;0.60;;
17228;SDS011;8731;50.364;8.958;2022-09-09T21:06:28;1.13;;;0.60;;
17228;SDS011;8731;50.364;8.958;2022-09-09T21:10:50;1.00;;;0.70;;
17228;SDS011;8731;50.364;8.958;2022-09-09T21:15:12;1.60;;;0.60;;
17228;SDS011;8731;50.364;8.958;2022-09-09T21:19:36;1.33;;;0.60;;
17228;SDS011;8731;50.364;8.958;2022-09-09T21:24:00;1.23;;;0.60;;
17228;SDS011;8731;50.364;8.958;2022-09-09T21:28:23;4.87;;;0.63;;
17228;SDS011;8731;50.364;8.958;2022-09-09T21:32:46;1.13;;;0.57;;
17228;SDS011;8731;50.364;8.958;2022-09-09T21:37:10;1.13;;;0.60;;
17228;SDS011;8731;50.364;8.958;2022-09-09T21:41:33;1.83;;;0.60;;
17228;SDS011;8731;50.364;8.958;2022-09-09T21:45:55;2.70;;;0.70;;
17228;SDS011;8731;50.364;8.958;2022-09-09T21:50:17;2.67;;;0.60;;
17228;SDS011;8731;50.364;8.958;2022-09-09T21:54:43;1.90;;;0.60;;
17228;SDS011;8731;50.364;8.958;2022-09-09T21:59:05;1.97;;;0.70;;
17228;SDS011;8731;50.364;8.958;2022-09-09T22:03:27;1.20;;;0.60;;
17228;SDS011;8731;50.364;8.958;2022-09-09T22:07:49;3.00;;;0.90;;
17228;SDS011;8731;50.364;8.958;2022-09-09T22:12:13;1.63;;;0.77;;
17228;SDS011;8731;50.364;8.958;2022-09-09T22:16:36;1.73;;;0.80;;
17228;SDS011;8731;50.364;8.958;2022-09-09T22:21:03;2.60;;;0.73;;
17228;SDS011;8731;50.364;8.958;2022-09-09T22:25:26;2.17;;;0.60;;
17228;SDS011;8731;50.364;8.958;2022-09-09T22:29:53;0.90;;;0.63;;
17228;SDS011;8731;50.364;8.958;2022-09-09T22:34:16;2.00;;;0.80;;
17228;SDS011;8731;50.364;8.958;2022-09-09T22:38:38;1.93;;;0.80;;
17228;SDS011;8731;50.364;8.958;2022-09-09T22:43:00;2.47;;;0.77;;
17228;SDS011;8731;50.364;8.958;2022-09-09T22:47:24;1.33;;;0.70;;
17228;SDS011;8731;50.364;8.958;2022-09-09T22:51:46;1.50;;;0.50;;
17228;SDS011;8731;50.364;8.958;2022-09-09T22:56:11;1.37;;;0.70;;
17228;SDS011;8731;50.364;8.958;2022-09-09T23:00:37;2.30;;;0.70;;
17228;SDS011;8731;50.364;8.958;2022-09-09T23:05:02;2.97;;;1.00;;
17228;SDS011;8731;50.364;8.958;2022-09-09T23:09:27;2.23;;;0.90;;
17228;SDS011;8731;50.364;8.958;2022-09-09T23:13:49;2.03;;;0.50;;
17228;SDS011;8731;50.364;8.958;2022-09-09T23:18:15;4.27;;;0.67;;
17228;SDS011;8731;50.364;8.958;2022-09-09T23:22:38;2.20;;;0.87;;
17228;SDS011;8731;50.364;8.958;2022-09-09T23:27:01;1.80;;;0.80;;
17228;SDS011;8731;50.364;8.958;2022-09-09T23:31:23;3.97;;;1.00;;
17228;SDS011;8731;50.364;8.958;2022-09-09T23:35:48;1.63;;;0.87;;
17228;SDS011;8731;50.364;8.958;2022-09-09T23:40:20;1.60;;;0.90;;
17228;SDS011;8731;50.364;8.958;2022-09-09T23:44:44;2.10;;;1.10;;
17228;SDS011;8731;50.364;8.958;2022-09-09T23:49:06;2.50;;;1.20;;
17228;SDS011;8731;50.364;8.958;2022-09-09T23:53:29;2.80;;;1.20;;
17228;SDS011;8731;50.364;8.958;2022-09-09T23:57:52;1.97;;;1.10;;
